Time;durP1;ratioP1;P1;durP2;ratioP2;P2;SDS_P1;SDS_P2;PMS_P1;PMS_P2;Temp;Humidity;BMP_temperature;BMP_pressure;BME280_temperature;BME280_humidity;BME280_pressure;Samples;Min_cycle;Max_cycle;Signal;HPM_P1;HPM_P2
2023/10/19 00:00:44;;;;;;;29.17;23.33;;;8.50;99.90;;;;;;5073029;28;20396;-67
2023/10/19 00:03:11;;;;;;;27.30;21.50;;;8.40;99.90;;;;;;5072902;28;20370;-67
2023/10/19 00:05:38;;;;;;;28.70;21.73;;;8.30;99.90;;;;;;5072894;28;20522;-67
2023/10/19 00:08:17;;;;;;;27.05;21.60;;;8.40;99.90;;;;;;5072650;28;20044;-67
2023/10/19 00:10:47;;;;;;;27.00;22.23;;;8.40;99.90;;;;;;5072907;28;20046;-68
2023/10/19 00:13:14;;;;;;;29.17;22.55;;;8.30;99.90;;;;;;5072504;28;20036;-68
2023/10/19 00:15:51;;;;;;;29.13;23.33;;;8.40;99.90;;;;;;5072441;28;20041;-67
2023/10/19 00:23:13;;;;;;;31.80;23.67;;;8.30;99.90;;;;;;5072590;28;20045;-67
2023/10/19 00:25:41;;;;;;;29.10;23.80;;;8.30;99.90;;;;;;5072456;28;20044;-67
2023/10/19 00:28:08;;;;;;;30.83;24.05;;;8.30;99.90;;;;;;5072227;28;20090;-67
2023/10/19 00:30:35;;;;;;;30.05;23.23;;;8.30;99.90;;;;;;5072417;28;20485;-67
2023/10/19 00:33:05;;;;;;;33.15;25.52;;;8.30;99.90;;;;;;5055775;28;20158;-67
2023/10/19 00:35:42;;;;;;;33.33;25.73;;;8.30;99.90;;;;;;5072150;28;20119;-67
2023/10/19 00:41:00;;;;;;;31.80;25.58;;;8.30;99.90;;;;;;5071966;28;20047;-67
2023/10/19 00:43:34;;;;;;;33.90;25.65;;;8.30;99.90;;;;;;5072514;28;20421;-67
2023/10/19 00:46:09;;;;;;;39.88;30.42;;;8.30;99.90;;;;;;5072123;28;20040;-67
2023/10/19 00:48:35;;;;;;;42.10;30.60;;;8.30;99.90;;;;;;5055260;28;20056;-67
2023/10/19 00:51:23;;;;;;;36.70;28.35;;;8.30;99.90;;;;;;5071915;28;20033;-68
2023/10/19 00:53:49;;;;;;;31.35;24.35;;;8.30;99.90;;;;;;5058042;28;20051;-67
2023/10/19 00:56:18;;;;;;;32.15;24.85;;;8.40;99.90;;;;;;5072046;28;20102;-67
2023/10/19 00:58:52;;;;;;;32.15;24.70;;;8.40;99.90;;;;;;5072149;28;20052;-67
2023/10/19 01:01:23;;;;;;;33.15;24.42;;;8.40;99.90;;;;;;5072280;28;20044;-67
2023/10/19 01:03:52;;;;;;;32.40;24.05;;;8.40;99.90;;;;;;5055335;28;20044;-67
2023/10/19 01:06:20;;;;;;;33.25;24.08;;;8.40;99.90;;;;;;5055430;28;20040;-67
2023/10/19 01:08:46;;;;;;;37.83;28.73;;;8.40;99.90;;;;;;5055304;28;20060;-67
2023/10/19 01:11:15;;;;;;;32.63;26.92;;;8.40;99.90;;;;;;5073015;28;20078;-67
2023/10/19 01:13:44;;;;;;;38.08;27.55;;;8.40;99.90;;;;;;5071648;28;20079;-67
2023/10/19 01:16:23;;;;;;;34.22;26.55;;;8.50;99.90;;;;;;5071744;28;20147;-70
2023/10/19 01:18:53;;;;;;;35.10;27.65;;;8.40;99.90;;;;;;5071765;28;20094;-70
2023/10/19 01:21:37;;;;;;;36.70;28.77;;;8.40;99.90;;;;;;5071912;28;20102;-70
2023/10/19 01:24:08;;;;;;;30.63;25.65;;;8.40;99.90;;;;;;5071670;28;20060;-70
2023/10/19 01:26:37;;;;;;;33.90;25.92;;;8.50;99.90;;;;;;5071833;28;20075;-67
2023/10/19 01:29:13;;;;;;;30.40;24.55;;;8.50;99.90;;;;;;5071595;28;20094;-67
2023/10/19 01:31:51;;;;;;;30.88;25.05;;;8.50;99.90;;;;;;5071517;28;20127;-66
2023/10/19 01:34:19;;;;;;;31.95;25.05;;;8.50;99.90;;;;;;5071525;28;20041;-67
2023/10/19 01:36:50;;;;;;;33.08;25.58;;;8.50;99.90;;;;;;5071747;28;20434;-67
2023/10/19 01:39:18;;;;;;;33.60;25.70;;;8.50;99.90;;;;;;5071517;28;20044;-67
2023/10/19 01:41:44;;;;;;;36.28;26.90;;;8.50;99.90;;;;;;5071591;28;20052;-67
2023/10/19 01:44:13;;;;;;;29.10;21.92;;;8.50;99.90;;;;;;5071420;28;20041;-67
2023/10/19 01:46:39;;;;;;;31.05;24.73;;;8.60;99.90;;;;;;5071510;28;20045;-67
2023/10/19 01:49:08;;;;;;;31.75;25.10;;;8.60;99.90;;;;;;5071322;28;20055;-67
2023/10/19 01:51:42;;;;;;;31.15;25.08;;;8.50;99.90;;;;;;5071394;28;20120;-68
2023/10/19 01:54:09;;;;;;;31.95;23.70;;;8.60;99.90;;;;;;5073636;28;20183;-67
2023/10/19 01:56:35;;;;;;;33.35;25.10;;;8.50;99.90;;;;;;5075000;28;20044;-67
2023/10/19 01:59:03;;;;;;;29.73;22.85;;;8.50;99.90;;;;;;5075052;28;20044;-66
2023/10/19 02:01:30;;;;;;;30.85;22.20;;;8.50;99.90;;;;;;5058413;28;20036;-67
2023/10/19 02:03:59;;;;;;;33.63;26.67;;;8.50;99.90;;;;;;5058172;28;20091;-67
2023/10/19 02:06:46;;;;;;;34.97;27.42;;;8.50;99.90;;;;;;5074822;28;20128;-66
2023/10/19 02:09:32;;;;;;;36.88;28.92;;;8.50;99.90;;;;;;5075177;28;20090;-67
2023/10/19 02:11:58;;;;;;;35.25;28.20;;;8.50;99.90;;;;;;5075179;28;20071;-66
2023/10/19 02:14:25;;;;;;;30.85;22.02;;;8.50;99.90;;;;;;5075099;28;20041;-66
2023/10/19 02:16:54;;;;;;;32.50;24.80;;;8.50;99.90;;;;;;5074788;28;20048;-66
2023/10/19 02:19:23;;;;;;;32.95;26.73;;;8.50;99.90;;;;;;5058108;28;20048;-67
2023/10/19 02:21:56;;;;;;;22.00;13.65;;;8.50;99.90;;;;;;5058201;28;20055;-66
2023/10/19 02:24:22;;;;;;;27.23;21.45;;;8.50;99.90;;;;;;5074706;28;20502;-66
2023/10/19 02:26:57;;;;;;;34.50;27.20;;;8.60;99.90;;;;;;5074481;28;20056;-67
2023/10/19 02:29:23;;;;;;;33.25;26.65;;;8.60;99.90;;;;;;5074583;28;20037;-67
2023/10/19 02:31:53;;;;;;;33.05;25.98;;;8.50;99.90;;;;;;5074429;28;20059;-67
2023/10/19 02:34:19;;;;;;;29.58;24.58;;;8.50;99.90;;;;;;5058174;28;20048;-67
2023/10/19 02:36:45;;;;;;;30.63;24.90;;;8.50;99.90;;;;;;5074904;28;20048;-71
2023/10/19 02:39:20;;;;;;;33.42;24.85;;;8.50;99.90;;;;;;5074406;28;20037;-71
2023/10/19 02:41:48;;;;;;;33.75;26.60;;;8.50;99.90;;;;;;5057920;28;20494;-71
2023/10/19 02:44:25;;;;;;;35.78;28.63;;;8.50;99.90;;;;;;5074274;28;20049;-72
2023/10/19 02:46:58;;;;;;;33.95;26.67;;;8.50;99.90;;;;;;5074389;28;20131;-72
2023/10/19 02:49:25;;;;;;;31.90;25.70;;;8.40;99.90;;;;;;5057912;28;20081;-71
2023/10/19 02:51:52;;;;;;;35.33;27.55;;;8.50;99.90;;;;;;5074366;28;20040;-71
2023/10/19 02:54:24;;;;;;;32.28;25.67;;;8.50;99.90;;;;;;5074144;28;20032;-71
2023/10/19 02:56:56;;;;;;;31.17;24.85;;;8.50;99.90;;;;;;5074425;28;20040;-71
2023/10/19 02:59:23;;;;;;;30.60;25.25;;;8.50;99.90;;;;;;5073872;28;20126;-71
2023/10/19 03:04:37;;;;;;;29.02;23.33;;;8.60;99.90;;;;;;5073570;28;20506;-71
2023/10/19 03:07:12;;;;;;;28.55;23.90;;;8.60;99.90;;;;;;5073947;28;20451;-71
2023/10/19 03:09:53;;;;;;;27.80;23.48;;;8.60;99.90;;;;;;5058333;28;20530;-71
2023/10/19 03:12:20;;;;;;;28.65;24.27;;;8.60;99.90;;;;;;5057422;28;20040;-71
2023/10/19 03:14:47;;;;;;;28.50;24.00;;;8.60;99.90;;;;;;5057295;28;20500;-71
2023/10/19 03:17:14;;;;;;;23.48;17.58;;;8.60;99.90;;;;;;5073682;28;20087;-70
2023/10/19 03:19:40;;;;;;;30.27;23.60;;;8.60;99.90;;;;;;5073670;28;20044;-70
2023/10/19 03:22:06;;;;;;;28.30;23.35;;;8.60;99.90;;;;;;5056918;28;20093;-70
2023/10/19 03:24:35;;;;;;;29.40;23.88;;;8.70;99.90;;;;;;5056683;28;20057;-71
2023/10/19 03:27:16;;;;;;;28.55;22.52;;;8.70;99.90;;;;;;5040637;28;20102;-70
2023/10/19 03:29:54;;;;;;;25.35;20.75;;;8.70;99.90;;;;;;5073664;28;20063;-71
2023/10/19 03:32:26;;;;;;;28.52;22.48;;;8.60;99.90;;;;;;5073354;28;20127;-72
2023/10/19 03:34:55;;;;;;;;;;;8.70;99.90;;;;;;5057454;28;20089;-71
2023/10/19 03:37:25;;;;;;;24.10;18.30;;;8.60;99.90;;;;;;5073274;28;19916;-70
2023/10/19 03:39:51;;;;;;;27.30;21.77;;;8.60;99.90;;;;;;5073463;28;20550;-71
2023/10/19 03:42:17;;;;;;;31.08;24.67;;;8.60;99.90;;;;;;5073428;28;20044;-71
2023/10/19 03:47:19;;;;;;;33.58;25.60;;;8.60;99.90;;;;;;5073188;28;20413;-67
2023/10/19 03:49:46;;;;;;;36.28;28.08;;;8.60;99.90;;;;;;5056238;28;20040;-67
2023/10/19 03:54:39;;;;;;;37.60;28.20;;;8.60;99.90;;;;;;5073133;28;20045;-67
2023/10/19 03:57:11;;;;;;;28.60;23.30;;;8.60;99.90;;;;;;5073444;28;20044;-71
2023/10/19 03:59:41;;;;;;;27.60;22.65;;;8.70;99.90;;;;;;5072692;28;20053;-71
2023/10/19 04:02:13;;;;;;;33.35;26.15;;;8.70;99.90;;;;;;5072984;28;20052;-71
2023/10/19 04:04:49;;;;;;;27.70;22.63;;;8.70;99.90;;;;;;5072879;28;20044;-71
2023/10/19 04:07:21;;;;;;;48.08;30.90;;;8.70;99.90;;;;;;5072597;28;20046;-71
2023/10/19 04:12:36;;;;;;;31.80;25.10;;;8.70;99.90;;;;;;5072903;28;20041;-71
2023/10/19 04:15:15;;;;;;;29.70;24.75;;;8.70;99.90;;;;;;5072682;28;20070;-71
2023/10/19 04:17:47;;;;;;;25.05;21.02;;;8.80;99.90;;;;;;5055465;28;20040;-67
2023/10/19 04:22:50;;;;;;;28.77;23.05;;;8.80;99.90;;;;;;5072672;28;20048;-67
2023/10/19 04:25:20;;;;;;;24.73;20.83;;;8.80;99.90;;;;;;5072137;28;20135;-68
2023/10/19 04:27:48;;;;;;;26.77;22.15;;;8.80;99.90;;;;;;5072113;28;20124;-67
2023/10/19 04:30:21;;;;;;;28.05;23.15;;;8.80;99.90;;;;;;5072273;28;20115;-67
2023/10/19 04:32:49;;;;;;;23.50;19.02;;;8.80;99.90;;;;;;5072349;28;20079;-67
2023/10/19 04:35:21;;;;;;;23.92;19.73;;;8.80;99.90;;;;;;5072251;28;20048;-67
2023/10/19 04:37:51;;;;;;;24.27;19.15;;;8.80;99.90;;;;;;5056313;28;20055;-67
2023/10/19 04:40:21;;;;;;;23.60;20.42;;;8.80;99.90;;;;;;5055936;28;20044;-67
2023/10/19 04:42:47;;;;;;;37.85;24.60;;;8.90;99.90;;;;;;5072307;28;20076;-68
2023/10/19 04:45:13;;;;;;;22.50;19.77;;;8.80;99.90;;;;;;5071995;28;20094;-68
2023/10/19 04:47:39;;;;;;;24.75;20.70;;;8.80;99.90;;;;;;5055170;28;20075;-67
2023/10/19 04:50:06;;;;;;;22.83;18.92;;;8.80;99.90;;;;;;5055323;28;20075;-67
2023/10/19 04:52:33;;;;;;;24.30;19.13;;;8.80;99.90;;;;;;5071909;28;20033;-67
2023/10/19 04:54:59;;;;;;;22.40;18.27;;;8.80;99.90;;;;;;5072311;28;20554;-67
2023/10/19 04:57:28;;;;;;;24.10;19.92;;;8.90;99.90;;;;;;5072293;28;20453;-67
2023/10/19 04:59:53;;;;;;;25.85;20.85;;;8.90;99.90;;;;;;5055363;28;20473;-67
2023/10/19 05:02:19;;;;;;;26.80;21.98;;;8.80;99.90;;;;;;5072079;28;20044;-68
2023/10/19 05:04:45;;;;;;;28.42;22.40;;;8.80;99.90;;;;;;5071895;28;20377;-68
2023/10/19 05:07:17;;;;;;;36.33;26.60;;;8.80;99.90;;;;;;5071699;28;20041;-68
2023/10/19 05:09:43;;;;;;;;;;;8.80;99.90;;;;;;5055544;28;20043;-68
2023/10/19 05:12:11;;;;;;;55.53;30.27;;;8.80;99.90;;;;;;5071849;28;20312;-67
2023/10/19 05:14:41;;;;;;;26.05;20.98;;;8.80;99.90;;;;;;5071945;28;20553;-68
2023/10/19 05:17:08;;;;;;;27.25;22.15;;;8.70;99.90;;;;;;5071733;28;20048;-67
2023/10/19 05:19:35;;;;;;;26.40;20.98;;;8.80;99.90;;;;;;5055171;28;20040;-67
2023/10/19 05:22:05;;;;;;;25.95;21.23;;;8.80;99.90;;;;;;5055141;28;20059;-67
2023/10/19 05:24:32;;;;;;;25.17;20.35;;;8.80;99.90;;;;;;5071549;28;20136;-67
2023/10/19 05:26:58;;;;;;;33.97;21.30;;;8.80;99.90;;;;;;5071549;28;20041;-67
2023/10/19 05:29:24;;;;;;;26.92;20.13;;;8.90;99.90;;;;;;5075683;28;20040;-67
2023/10/19 05:31:53;;;;;;;26.63;21.55;;;8.90;99.90;;;;;;5075606;28;20093;-68
2023/10/19 05:34:23;;;;;;;24.40;20.35;;;8.80;99.90;;;;;;5075900;28;20051;-68
2023/10/19 05:36:49;;;;;;;24.90;20.60;;;8.80;99.90;;;;;;5075865;28;20070;-70
2023/10/19 05:39:18;;;;;;;21.52;18.52;;;8.80;99.90;;;;;;5075546;28;20048;-68
2023/10/19 05:41:44;;;;;;;25.25;20.58;;;8.80;99.90;;;;;;5058926;28;20094;-67
2023/10/19 05:44:10;;;;;;;19.83;16.40;;;8.80;99.90;;;;;;5075419;28;20040;-67
2023/10/19 05:46:36;;;;;;;23.90;19.30;;;8.90;99.90;;;;;;5075521;28;20051;-68
2023/10/19 05:49:03;;;;;;;33.08;22.75;;;8.90;99.90;;;;;;5075246;28;20040;-68
2023/10/19 05:51:30;;;;;;;21.35;17.00;;;8.90;99.90;;;;;;5075580;28;20501;-68
2023/10/19 05:54:01;;;;;;;27.42;20.42;;;8.90;99.90;;;;;;5075497;28;20055;-67
2023/10/19 05:56:28;;;;;;;21.17;17.40;;;8.90;99.90;;;;;;5075201;28;20102;-67
2023/10/19 05:58:54;;;;;;;30.08;21.23;;;8.90;99.90;;;;;;5058760;28;20048;-67
2023/10/19 06:01:22;;;;;;;19.55;16.55;;;8.90;99.90;;;;;;5075457;28;20047;-67
2023/10/19 06:03:47;;;;;;;19.25;16.02;;;8.90;99.90;;;;;;5058838;28;20106;-67
2023/10/19 06:06:13;;;;;;;20.50;17.48;;;8.90;99.90;;;;;;5075129;28;20102;-67
2023/10/19 06:08:40;;;;;;;24.40;18.50;;;8.90;99.90;;;;;;5075108;28;20415;-68
2023/10/19 06:11:06;;;;;;;25.48;19.73;;;8.90;99.90;;;;;;5074761;28;20071;-67
2023/10/19 06:13:32;;;;;;;20.00;16.92;;;8.90;99.90;;;;;;5058200;28;20041;-67
2023/10/19 06:15:58;;;;;;;19.67;15.48;;;8.90;99.90;;;;;;5074863;28;20074;-68
2023/10/19 06:18:24;;;;;;;18.15;15.48;;;8.90;99.90;;;;;;5074776;28;20423;-68
2023/10/19 06:20:51;;;;;;;18.42;15.15;;;8.90;99.90;;;;;;5058505;28;20370;-68
2023/10/19 06:23:17;;;;;;;15.63;12.55;;;8.90;99.90;;;;;;5074746;28;20041;-68
2023/10/19 06:25:44;;;;;;;15.25;12.80;;;8.90;99.90;;;;;;5074648;28;20048;-67
2023/10/19 06:28:11;;;;;;;20.98;14.98;;;9.00;99.90;;;;;;5074541;28;20040;-68
2023/10/19 06:30:37;;;;;;;15.07;12.82;;;9.00;99.90;;;;;;5058311;28;20048;-68
2023/10/19 06:33:03;;;;;;;17.85;13.52;;;9.00;99.90;;;;;;5074477;28;20044;-68
2023/10/19 06:35:36;;;;;;;19.27;15.90;;;9.00;99.90;;;;;;5058108;28;20127;-68
2023/10/19 06:38:03;;;;;;;19.08;15.15;;;8.90;99.90;;;;;;5075764;28;20044;-68
2023/10/19 06:40:30;;;;;;;29.23;19.67;;;9.00;99.90;;;;;;5073608;28;20044;-68
2023/10/19 06:42:58;;;;;;;25.27;18.30;;;8.90;99.90;;;;;;5074624;28;20500;-68
2023/10/19 06:45:25;;;;;;;17.10;14.30;;;9.00;99.90;;;;;;5074282;28;20044;-68
2023/10/19 06:47:51;;;;;;;17.08;14.10;;;8.90;99.90;;;;;;5074568;28;20037;-68
2023/10/19 06:50:21;;;;;;;26.38;19.02;;;9.00;99.90;;;;;;5074247;28;20052;-68
2023/10/19 06:52:48;;;;;;;24.08;17.90;;;8.90;99.90;;;;;;5057662;28;20509;-68
2023/10/19 06:55:22;;;;;;;18.02;14.77;;;8.90;99.90;;;;;;5074496;28;20043;-68
2023/10/19 06:57:57;;;;;;;16.90;14.55;;;8.90;99.90;;;;;;5074316;28;20110;-68
2023/10/19 07:00:27;;;;;;;18.42;15.00;;;8.90;99.90;;;;;;5074346;28;20076;-68
2023/10/19 07:02:55;;;;;;;19.85;15.20;;;9.00;99.90;;;;;;5073971;28;20129;-68
2023/10/19 07:05:23;;;;;;;17.67;14.13;;;9.00;99.90;;;;;;5073928;28;20051;-68
2023/10/19 07:07:51;;;;;;;15.88;13.48;;;9.00;99.90;;;;;;5057266;28;20072;-68
2023/10/19 07:10:19;;;;;;;13.15;10.55;;;8.90;99.90;;;;;;5073844;28;20048;-68
2023/10/19 07:12:47;;;;;;;13.82;11.77;;;9.10;99.90;;;;;;5074048;28;20076;-68
2023/10/19 07:15:14;;;;;;;13.98;12.05;;;9.10;99.90;;;;;;5073711;28;20044;-68
2023/10/19 07:17:43;;;;;;;13.80;11.65;;;9.10;99.90;;;;;;5074133;28;20097;-71
2023/10/19 07:23:18;;;;;;;18.63;14.63;;;9.10;99.90;;;;;;5052186;28;20125;-71
2023/10/19 07:25:59;;;;;;;18.52;14.00;;;9.10;99.90;;;;;;5058725;28;20103;-71
2023/10/19 07:28:26;;;;;;;19.20;15.35;;;9.10;99.90;;;;;;5057129;28;20087;-71
2023/10/19 07:30:52;;;;;;;19.20;14.82;;;9.10;99.90;;;;;;5073589;28;20079;-70
2023/10/19 07:33:19;;;;;;;18.13;14.70;;;9.10;99.90;;;;;;5073332;28;20036;-71
2023/10/19 07:35:54;;;;;;;20.38;15.50;;;9.10;99.90;;;;;;5073628;28;20045;-70
2023/10/19 07:38:22;;;;;;;15.10;13.15;;;9.10;99.90;;;;;;5073645;28;20036;-71
2023/10/19 07:40:49;;;;;;;20.23;15.57;;;9.10;99.90;;;;;;5073254;28;20091;-70
2023/10/19 07:43:14;;;;;;;18.05;14.68;;;9.10;99.90;;;;;;5056917;28;20043;-70
2023/10/19 07:45:40;;;;;;;22.65;17.30;;;9.10;99.90;;;;;;5073090;28;20041;-70
2023/10/19 07:48:06;;;;;;;16.48;14.13;;;9.20;99.90;;;;;;5073002;28;20047;-70
2023/10/19 07:50:33;;;;;;;15.55;13.15;;;9.20;99.90;;;;;;5073325;28;20418;-70
2023/10/19 07:52:59;;;;;;;16.33;13.75;;;9.20;99.90;;;;;;5072931;28;20043;-70
2023/10/19 07:55:25;;;;;;;14.48;12.70;;;9.20;99.90;;;;;;5072974;28;20400;-70
2023/10/19 07:57:51;;;;;;;14.20;12.45;;;9.20;99.90;;;;;;5073135;28;20374;-70
2023/10/19 08:00:18;;;;;;;28.25;19.83;;;9.20;99.90;;;;;;5072829;28;20042;-70
2023/10/19 08:02:47;;;;;;;17.52;13.82;;;9.30;99.90;;;;;;5056159;28;20062;-70
2023/10/19 08:05:19;;;;;;;14.60;12.73;;;9.30;99.90;;;;;;5072884;28;20044;-70
2023/10/19 08:07:49;;;;;;;15.98;13.25;;;9.30;99.90;;;;;;5073046;28;20036;-70
2023/10/19 08:10:17;;;;;;;26.25;19.55;;;9.30;99.90;;;;;;5056311;28;20048;-71
2023/10/19 08:12:44;;;;;;;18.98;14.80;;;9.40;99.90;;;;;;5072822;28;20045;-70
2023/10/19 08:15:11;;;;;;;30.50;20.40;;;9.40;99.90;;;;;;5072891;28;20044;-70
2023/10/19 08:17:42;;;;;;;26.80;19.30;;;9.40;99.90;;;;;;5056007;28;20045;-70
2023/10/19 08:20:09;;;;;;;19.52;16.13;;;9.40;99.90;;;;;;5072502;28;20040;-71
2023/10/19 08:22:38;;;;;;;17.58;15.02;;;9.40;99.90;;;;;;5072668;28;20090;-70
2023/10/19 08:25:11;;;;;;;18.95;16.20;;;9.40;99.90;;;;;;5072239;28;20052;-70
2023/10/19 08:27:39;;;;;;;19.35;15.95;;;9.50;99.90;;;;;;5056853;28;20040;-69
2023/10/19 08:30:08;;;;;;;23.98;17.98;;;9.50;99.90;;;;;;5055774;28;20048;-69
2023/10/19 08:32:35;;;;;;;18.30;15.57;;;9.60;99.90;;;;;;5072263;28;20079;-69
2023/10/19 08:35:02;;;;;;;19.30;15.77;;;9.60;99.90;;;;;;5072699;28;20124;-69
2023/10/19 08:37:28;;;;;;;19.45;14.20;;;9.50;99.90;;;;;;5072449;28;20040;-68
2023/10/19 08:39:54;;;;;;;19.90;15.98;;;9.60;99.90;;;;;;5072358;28;20058;-69
2023/10/19 08:42:20;;;;;;;22.55;18.52;;;9.50;99.90;;;;;;5072156;28;20044;-68
2023/10/19 08:44:47;;;;;;;31.20;20.77;;;9.50;99.90;;;;;;5039287;28;20438;-68
2023/10/19 08:47:12;;;;;;;20.90;17.63;;;9.60;99.90;;;;;;5071916;28;20131;-68
2023/10/19 08:49:38;;;;;;;38.35;23.85;;;9.60;99.90;;;;;;5071999;28;20166;-69
2023/10/19 08:52:06;;;;;;;21.48;17.15;;;9.60;99.90;;;;;;5055754;28;20426;-69
2023/10/19 08:54:33;;;;;;;21.05;16.83;;;9.60;99.90;;;;;;5072025;28;20076;-69
2023/10/19 08:57:00;;;;;;;23.52;18.90;;;9.60;99.90;;;;;;5072181;28;20036;-69
2023/10/19 08:59:26;;;;;;;21.42;16.88;;;9.60;99.90;;;;;;5072184;28;20484;-68
2023/10/19 09:02:03;;;;;;;24.02;19.00;;;9.70;99.90;;;;;;5071665;28;20431;-68
2023/10/19 09:04:30;;;;;;;21.25;18.05;;;9.70;99.90;;;;;;5071874;28;20075;-68
2023/10/19 09:06:55;;;;;;;22.20;17.67;;;9.80;99.90;;;;;;5071816;28;20431;-68
2023/10/19 09:09:25;;;;;;;29.17;22.27;;;9.80;99.90;;;;;;5071820;28;20044;-69
2023/10/19 09:11:54;;;;;;;32.35;24.02;;;9.80;99.90;;;;;;5071727;28;20052;-68
2023/10/19 09:14:43;;;;;;;37.83;26.50;;;9.80;99.90;;;;;;5071715;28;20036;-69
2023/10/19 09:17:10;;;;;;;41.97;31.42;;;9.80;99.90;;;;;;5071920;28;20538;-69
2023/10/19 09:19:43;;;;;;;68.30;45.53;;;9.90;99.90;;;;;;5071961;28;20074;-68
2023/10/19 09:22:18;;;;;;;86.28;59.25;;;9.90;99.90;;;;;;5071753;28;20078;-69
2023/10/19 09:24:49;;;;;;;103.88;61.95;;;9.90;99.90;;;;;;5071572;28;20056;-69
2023/10/19 09:27:19;;;;;;;74.70;54.35;;;9.90;99.90;;;;;;5071526;28;20049;-68
2023/10/19 09:29:45;;;;;;;66.22;47.17;;;9.90;99.90;;;;;;5071598;28;20044;-69
2023/10/19 09:32:13;;;;;;;62.17;45.22;;;9.90;99.90;;;;;;5071847;28;20451;-69
2023/10/19 09:34:43;;;;;;;41.42;32.13;;;10.00;99.90;;;;;;5071894;28;20554;-68
2023/10/19 09:37:11;;;;;;;54.92;37.28;;;10.00;99.90;;;;;;5071796;28;20040;-69
2023/10/19 09:39:37;;;;;;;31.83;25.23;;;10.00;99.90;;;;;;5071806;28;20127;-69
2023/10/19 09:42:10;;;;;;;37.95;29.77;;;10.10;99.90;;;;;;5071494;28;20044;-69
2023/10/19 09:44:42;;;;;;;32.95;25.58;;;10.10;99.90;;;;;;5071746;28;20558;-69
2023/10/19 09:47:23;;;;;;;24.33;18.58;;;10.10;99.90;;;;;;5071398;28;20457;-68
2023/10/19 09:49:50;;;;;;;29.50;22.60;;;10.20;99.90;;;;;;5054916;28;20389;-69
2023/10/19 09:52:17;;;;;;;24.50;19.15;;;10.20;99.90;;;;;;5054718;28;20117;-68
2023/10/19 09:55:05;;;;;;;25.35;20.63;;;10.20;99.90;;;;;;5071504;28;20041;-70
2023/10/19 09:57:46;;;;;;;24.45;19.90;;;10.20;99.90;;;;;;5071263;28;20041;-68
2023/10/19 10:00:12;;;;;;;27.43;22.67;;;10.20;99.90;;;;;;5071601;28;20106;-68
2023/10/19 10:02:47;;;;;;;27.63;22.42;;;10.20;99.90;;;;;;5071321;28;20044;-69
2023/10/19 10:05:43;;;;;;;27.50;21.92;;;10.30;99.90;;;;;;5071290;28;20074;-69
2023/10/19 10:08:18;;;;;;;26.10;20.15;;;10.30;99.90;;;;;;5071283;28;20052;-68
2023/10/19 10:10:49;;;;;;;29.65;23.20;;;10.30;99.90;;;;;;5071189;28;20036;-69
2023/10/19 10:13:24;;;;;;;27.60;22.20;;;10.40;99.90;;;;;;5071201;28;20036;-68
2023/10/19 10:15:57;;;;;;;28.08;21.75;;;10.40;99.90;;;;;;5074213;28;20072;-69
2023/10/19 10:18:31;;;;;;;28.50;23.02;;;10.50;99.90;;;;;;5074837;28;20036;-69
2023/10/19 10:21:26;;;;;;;25.90;21.40;;;10.50;99.90;;;;;;5074707;28;20115;-69
2023/10/19 10:24:00;;;;;;;26.30;21.65;;;10.50;99.90;;;;;;5073290;28;20056;-68
2023/10/19 10:26:30;;;;;;;24.20;21.23;;;10.60;99.90;;;;;;5074145;28;20191;-68
2023/10/19 10:29:09;;;;;;;25.65;21.55;;;10.50;99.90;;;;;;5074691;28;20040;-68
2023/10/19 10:31:46;;;;;;;27.33;22.35;;;10.60;99.90;;;;;;5074661;28;20048;-68
2023/10/19 10:34:31;;;;;;;27.17;22.58;;;10.60;99.90;;;;;;5074625;28;20036;-68
2023/10/19 10:37:05;;;;;;;32.75;25.95;;;10.60;99.90;;;;;;5074427;28;20040;-68
2023/10/19 10:39:31;;;;;;;31.92;25.80;;;10.60;99.90;;;;;;5074447;28;20044;-69
2023/10/19 10:42:05;;;;;;;26.25;22.05;;;10.60;99.90;;;;;;5058051;28;20040;-69
2023/10/19 10:44:40;;;;;;;28.77;22.63;;;10.60;99.90;;;;;;5074620;28;20610;-68
2023/10/19 10:47:09;;;;;;;40.60;26.42;;;10.70;99.90;;;;;;5074516;28;20044;-70
2023/10/19 10:49:48;;;;;;;45.22;31.17;;;10.70;99.90;;;;;;5074235;28;20041;-70
2023/10/19 10:52:28;;;;;;;44.00;31.27;;;10.70;99.90;;;;;;5057514;28;20131;-70
2023/10/19 10:54:55;;;;;;;53.05;34.80;;;10.70;99.90;;;;;;5074265;28;20069;-70
2023/10/19 10:57:21;;;;;;;48.03;32.85;;;10.70;99.90;;;;;;5074084;28;20048;-70
2023/10/19 10:59:46;;;;;;;43.95;32.20;;;10.70;99.90;;;;;;5074333;28;20048;-70
2023/10/19 11:02:21;;;;;;;31.65;26.08;;;10.70;99.90;;;;;;5074161;28;20127;-70
2023/10/19 11:04:47;;;;;;;36.15;29.75;;;10.80;99.90;;;;;;5074303;28;20091;-70
2023/10/19 11:07:20;;;;;;;34.67;27.27;;;10.80;99.90;;;;;;5057255;28;20041;-70
2023/10/19 11:09:48;;;;;;;34.35;27.85;;;10.80;99.90;;;;;;5057584;28;20055;-69
2023/10/19 11:12:19;;;;;;;38.30;29.80;;;10.80;99.90;;;;;;5074017;28;20040;-69
2023/10/19 11:14:59;;;;;;;34.50;28.90;;;10.80;99.90;;;;;;5057376;28;20043;-70
2023/10/19 11:17:30;;;;;;;33.13;27.52;;;10.80;99.90;;;;;;5057045;28;20044;-69
2023/10/19 11:19:59;;;;;;;39.97;32.27;;;10.80;99.90;;;;;;5074002;28;20053;-70
2023/10/19 11:22:27;;;;;;;37.60;28.25;;;10.80;99.90;;;;;;5057356;28;20571;-70
2023/10/19 11:24:54;;;;;;;33.60;26.77;;;10.80;99.90;;;;;;5073189;28;20052;-70
2023/10/19 11:27:26;;;;;;;35.28;27.83;;;10.80;99.90;;;;;;5073586;28;20071;-70
2023/10/19 11:30:07;;;;;;;33.80;27.25;;;10.80;99.90;;;;;;5073726;28;20485;-70
2023/10/19 11:32:39;;;;;;;27.98;23.65;;;10.80;99.90;;;;;;5073212;28;20062;-70
2023/10/19 11:35:05;;;;;;;;;;;10.80;99.90;;;;;;5057150;28;20076;-70
2023/10/19 11:37:46;;;;;;;25.48;21.67;;;10.90;99.90;;;;;;5073721;28;19923;-70
2023/10/19 11:40:12;;;;;;;30.88;26.02;;;10.90;99.90;;;;;;5073597;28;20043;-70
2023/10/19 11:42:38;;;;;;;35.63;27.60;;;11.00;99.90;;;;;;5056557;28;20041;-70
2023/10/19 11:45:06;;;;;;;27.98;23.83;;;11.00;99.90;;;;;;5073514;28;20109;-70
2023/10/19 11:47:31;;;;;;;31.15;25.52;;;11.10;99.90;;;;;;5056656;28;20101;-70
2023/10/19 11:49:57;;;;;;;28.20;22.80;;;11.10;99.90;;;;;;5073034;28;20032;-70
2023/10/19 11:52:23;;;;;;;30.52;23.77;;;11.20;99.90;;;;;;5073171;28;20097;-70
2023/10/19 11:54:49;;;;;;;29.85;25.65;;;11.30;99.90;;;;;;5073264;28;20082;-70
2023/10/19 11:57:14;;;;;;;32.45;27.33;;;11.30;99.90;;;;;;5072994;28;20052;-69
2023/10/19 11:59:40;;;;;;;27.02;22.17;;;11.40;99.90;;;;;;5073157;28;20047;-70
2023/10/19 12:02:06;;;;;;;26.35;22.52;;;11.40;99.90;;;;;;5072923;28;20059;-70
2023/10/19 12:04:36;;;;;;;24.92;22.20;;;11.50;99.90;;;;;;5072979;28;20063;-70
2023/10/19 12:07:03;;;;;;;28.38;25.10;;;11.50;99.90;;;;;;5040489;28;20051;-70
2023/10/19 12:09:29;;;;;;;25.33;22.48;;;11.60;99.90;;;;;;5072856;28;20044;-70
2023/10/19 12:11:56;;;;;;;24.33;21.02;;;11.70;99.90;;;;;;5072624;28;20044;-70
2023/10/19 12:14:22;;;;;;;25.33;22.52;;;11.70;99.90;;;;;;5056082;28;20079;-70
2023/10/19 12:16:48;;;;;;;25.27;22.25;;;11.70;99.90;;;;;;5072715;28;20048;-70
2023/10/19 12:19:16;;;;;;;23.55;20.63;;;11.70;99.90;;;;;;5055831;28;20044;-69
2023/10/19 12:21:42;;;;;;;26.23;23.25;;;11.70;99.90;;;;;;5055996;28;20405;-70
2023/10/19 12:24:08;;;;;;;24.00;21.40;;;11.70;99.90;;;;;;5072503;28;20040;-70
2023/10/19 12:26:34;;;;;;;23.75;21.25;;;11.70;99.90;;;;;;5072260;28;20048;-70
2023/10/19 12:29:00;;;;;;;24.42;21.50;;;11.70;99.90;;;;;;5073924;28;20047;-70
2023/10/19 12:31:25;;;;;;;20.55;18.35;;;11.70;99.90;;;;;;5072409;28;20044;-70
2023/10/19 12:33:52;;;;;;;18.65;15.85;;;11.70;99.90;;;;;;5055681;28;20127;-70
2023/10/19 12:36:31;;;;;;;18.38;15.60;;;11.80;99.90;;;;;;5055783;28;20412;-70
2023/10/19 12:38:57;;;;;;;22.65;19.80;;;11.80;99.90;;;;;;5071878;28;20101;-69
2023/10/19 12:41:23;;;;;;;20.25;17.92;;;11.80;99.90;;;;;;5072507;28;20048;-70
2023/10/19 12:43:53;;;;;;;21.50;19.20;;;11.80;99.90;;;;;;5072058;28;20048;-70
2023/10/19 12:46:19;;;;;;;19.52;17.42;;;11.80;99.90;;;;;;5055489;28;20040;-70
2023/10/19 12:48:48;;;;;;;20.23;17.88;;;11.80;99.90;;;;;;5072386;28;20588;-70
2023/10/19 12:51:14;;;;;;;19.38;17.30;;;11.80;99.90;;;;;;5072143;28;20040;-69
2023/10/19 12:53:40;;;;;;;22.58;19.38;;;11.80;99.90;;;;;;5072326;28;20040;-69
2023/10/19 12:56:07;;;;;;;22.88;18.58;;;11.80;99.90;;;;;;5072169;28;20036;-70
2023/10/19 12:58:33;;;;;;;23.30;20.02;;;11.80;99.90;;;;;;5071953;28;20063;-70
2023/10/19 13:00:59;;;;;;;18.75;16.67;;;11.80;99.90;;;;;;5072188;28;20037;-70
2023/10/19 13:03:32;;;;;;;22.48;18.52;;;11.90;99.90;;;;;;5072301;28;20131;-70
2023/10/19 13:05:58;;;;;;;19.33;16.55;;;11.90;99.90;;;;;;5056211;28;20178;-70
2023/10/19 13:08:27;;;;;;;18.85;16.65;;;12.00;99.90;;;;;;5071951;28;20119;-70
2023/10/19 13:10:54;;;;;;;21.10;17.83;;;12.00;99.90;;;;;;5071746;28;20076;-70